Odiham, United Kingdom
Current Conditions -  °F | °C
As of 3:50 PM on Sunday 21 Dec 2014 (Local Time) from EGVO Reporting Station
Broken Clouds Broken Clouds  
Wind Chill: 42°   Ceiling: 1800
Heat Index: 48°   Visibility: 6mi
Dew Point: 41°   Wind: 17mph
Humidity: 76%   Direction: 220°SW
Pressure: 30.27"   Gusts: NA
Location:  51.25°N, 0.94°W
Report Text: EGVO 211550Z 22015KT 9999 BKN018 09/05 Q1025 WHT
Loading
Personal Weather Stations






























Interactive Weather Map New forecast layout! Learn more

10-Day Weather Forecast

Advertisements
Track Severe Weather on mobile